Time;durP1;ratioP1;P1;durP2;ratioP2;P2;SDS_P1;SDS_P2;PMS_P1;PMS_P2;Temp;Humidity;BMP_temperature;BMP_pressure;BME280_temperature;BME280_humidity;BME280_pressure;Samples;Min_cycle;Max_cycle;Signal;HPM_P1;HPM_P2
2023/06/22 00:00:15;;;;;;;0.20;0.20;;;28.20;59.30;;;28.77;42.32;95270.06;5032540;28;20203;-42
2023/06/22 00:02:42;;;;;;;0.22;0.22;;;28.10;59.30;;;28.75;42.24;95284.66;5033350;28;20295;-44
2023/06/22 00:05:10;;;;;;;0.30;0.30;;;28.10;59.40;;;28.74;42.61;95279.56;5032904;28;20583;-43
2023/06/22 00:07:37;;;;;;;0.30;0.30;;;28.10;59.30;;;28.72;42.34;95271.78;5033114;28;20199;-44
2023/06/22 00:10:05;;;;;;;0.20;0.20;;;28.10;59.40;;;28.70;42.42;95279.38;5032928;28;20247;-41
2023/06/22 00:12:32;;;;;;;0.20;0.20;;;28.10;59.40;;;28.69;42.43;95277.75;5048704;28;20195;-44
2023/06/22 00:14:59;;;;;;;0.32;0.32;;;28.10;59.50;;;28.66;42.49;95270.25;5032865;28;20257;-44
2023/06/22 00:17:27;;;;;;;0.30;0.30;;;28.00;59.40;;;28.65;42.75;95274.03;5032875;28;20223;-42
2023/06/22 00:19:55;;;;;;;0.30;0.30;;;28.00;59.50;;;28.62;42.72;95282.72;5032822;28;20202;-41
2023/06/22 00:22:28;;;;;;;0.40;0.40;;;28.00;59.50;;;28.60;42.97;95280.31;5048623;28;20254;-41
2023/06/22 00:24:56;;;;;;;0.30;0.30;;;28.00;59.50;;;28.58;42.92;95279.03;5032720;28;20219;-41
2023/06/22 00:27:24;;;;;;;0.30;0.30;;;28.00;59.60;;;28.55;42.54;95280.44;5032658;28;20222;-41
2023/06/22 00:29:51;;;;;;;0.28;0.28;;;28.00;59.60;;;28.55;43.01;95279.63;5032938;28;20236;-43
2023/06/22 00:32:18;;;;;;;0.20;0.20;;;27.90;59.60;;;28.53;42.76;95276.44;5032869;28;20186;-41
2023/06/22 00:34:47;;;;;;;0.30;0.30;;;27.90;59.60;;;28.52;42.78;95272.91;5032842;28;20193;-43
2023/06/22 00:37:14;;;;;;;0.28;0.28;;;27.90;59.70;;;28.51;42.60;95270.53;5047853;28;20236;-43
2023/06/22 00:39:43;;;;;;;0.30;0.30;;;27.80;59.60;;;28.48;42.72;95269.22;5032790;28;20198;-42
2023/06/22 00:42:11;;;;;;;0.30;0.30;;;27.80;59.70;;;28.49;42.85;95275.41;5031510;28;20218;-43
2023/06/22 00:44:38;;;;;;;0.28;0.28;;;27.80;59.70;;;28.47;42.64;95278.41;5032444;28;20253;-42
2023/06/22 00:47:06;;;;;;;0.30;0.30;;;27.80;59.80;;;28.44;42.82;95274.41;5032126;28;20307;-43
2023/06/22 00:49:33;;;;;;;0.22;0.22;;;27.80;59.90;;;28.44;43.25;95276.28;5048465;28;20544;-42
2023/06/22 00:52:02;;;;;;;0.30;0.30;;;27.80;59.90;;;28.45;42.70;95275.19;5032817;28;20222;-43
2023/06/22 00:54:30;;;;;;;0.28;0.28;;;27.70;59.90;;;28.43;42.85;95272.81;5031336;28;20639;-42
2023/06/22 00:56:57;;;;;;;0.30;0.30;;;27.70;60.00;;;28.42;42.81;95279.28;5031288;28;20203;-43
2023/06/22 00:59:26;;;;;;;0.38;0.38;;;27.70;60.00;;;28.41;43.15;95272.28;5047742;28;20614;-42
2023/06/22 01:01:54;;;;;;;0.30;0.30;;;27.70;60.00;;;28.38;43.27;95264.81;5031283;28;20212;-42
2023/06/22 01:04:36;;;;;;;0.30;0.30;;;27.70;60.10;;;28.36;43.32;95264.28;5032230;28;20293;-43
2023/06/22 01:07:28;;;;;;;0.30;0.30;;;27.70;60.10;;;28.34;43.59;95261.09;5031067;28;20555;-42
2023/06/22 01:10:27;;;;;;;0.20;0.20;;;27.70;60.10;;;28.33;43.26;95259.50;5031294;28;20632;-44
2023/06/22 01:13:03;;;;;;;0.30;0.30;;;27.70;61.10;;;28.33;43.60;95251.41;5032845;28;20174;-51
2023/06/22 01:15:39;;;;;;;0.20;0.20;;;27.70;60.20;;;28.33;43.10;95250.59;5032091;28;20183;-39
2023/06/22 01:18:08;;;;;;;0.30;0.30;;;27.70;60.30;;;28.34;43.39;95244.13;5031068;28;20199;-41
2023/06/22 01:20:37;;;;;;;0.30;0.30;;;27.60;60.20;;;28.34;43.66;95249.50;5048215;28;20195;-42
2023/06/22 01:23:37;;;;;;;0.30;0.30;;;27.70;60.30;;;28.34;43.59;95254.91;5031441;28;20226;-40
2023/06/22 01:26:42;;;;;;;0.20;0.20;;;27.60;61.20;;;28.27;43.69;95255.28;5048148;28;20240;-42
2023/06/22 01:29:13;;;;;;;0.30;0.30;;;27.60;60.20;;;28.30;43.82;95262.00;5047318;28;20202;-43
2023/06/22 01:31:42;;;;;;;0.20;0.20;;;27.60;60.20;;;28.30;43.29;95264.69;5031131;28;20190;-44
2023/06/22 01:34:13;;;;;;;0.30;0.30;;;27.60;60.30;;;28.30;43.21;95257.38;5047469;28;20187;-44
2023/06/22 01:36:41;;;;;;;0.30;0.30;;;27.60;60.30;;;28.30;43.36;95257.38;5031758;28;20200;-44
2023/06/22 01:39:09;;;;;;;0.30;0.30;;;27.60;60.30;;;28.29;43.63;95258.47;5047301;28;20214;-46
2023/06/22 01:41:38;;;;;;;0.30;0.30;;;27.60;60.30;;;28.29;43.19;95247.69;5030916;28;20198;-43
2023/06/22 01:44:09;;;;;;;0.30;0.30;;;27.60;60.40;;;28.27;43.77;95253.41;5030714;28;20222;-43
2023/06/22 01:46:37;;;;;;;0.30;0.30;;;27.60;60.30;;;28.26;43.54;95251.78;5047412;28;20237;-40
2023/06/22 01:49:05;;;;;;;0.20;0.20;;;27.60;60.30;;;28.26;43.58;95249.09;5030848;28;20619;-47
2023/06/22 01:51:33;;;;;;;0.28;0.28;;;27.60;60.40;;;28.25;43.55;95244.00;5030813;28;20204;-43
2023/06/22 01:54:01;;;;;;;0.30;0.30;;;27.60;60.30;;;28.24;43.55;95250.50;5047518;28;20613;-45
2023/06/22 01:56:28;;;;;;;0.30;0.30;;;27.60;60.30;;;28.22;43.62;95249.97;5031536;28;20536;-45
2023/06/22 01:59:29;;;;;;;0.30;0.30;;;27.60;60.40;;;28.17;43.53;95242.75;5031576;28;20284;-47
2023/06/22 02:02:03;;;;;;;0.30;0.30;;;27.60;60.40;;;28.19;43.75;95239.78;5030803;28;20534;-47
2023/06/22 02:04:45;;;;;;;0.25;0.25;;;27.50;60.30;;;28.17;43.27;95236.59;5031685;28;20197;-47
2023/06/22 02:07:17;;;;;;;0.30;0.30;;;27.50;60.30;;;28.15;43.49;95231.50;5030611;28;20227;-44
2023/06/22 02:09:46;;;;;;;0.30;0.30;;;27.50;60.30;;;28.14;43.36;95232.59;5030481;28;20200;-43
2023/06/22 02:12:18;;;;;;;0.30;0.30;;;27.50;60.30;;;28.12;43.65;95234.75;5031579;28;20638;-45
2023/06/22 02:14:47;;;;;;;0.30;0.30;;;27.50;61.20;;;28.11;43.18;95233.97;5030460;28;20255;-41
2023/06/22 02:17:16;;;;;;;0.30;0.30;;;27.50;60.30;;;28.10;43.56;95234.28;5030492;28;20204;-43
2023/06/22 02:19:43;;;;;;;0.20;0.20;;;27.50;60.30;;;28.07;43.89;95243.75;5030137;28;20246;-43
2023/06/22 02:22:12;;;;;;;0.30;0.30;;;27.50;60.30;;;28.07;43.67;95242.94;5030306;28;20205;-42
2023/06/22 02:24:39;;;;;;;0.30;0.30;;;27.40;60.20;;;28.06;43.71;95244.03;5034912;28;20187;-44
2023/06/22 02:27:07;;;;;;;0.20;0.20;;;27.40;60.20;;;28.05;43.56;95243.25;5050078;28;20309;-43
2023/06/22 02:29:34;;;;;;;0.32;0.32;;;27.40;60.30;;;28.03;43.73;95239.22;5034398;28;20185;-45
2023/06/22 02:32:02;;;;;;;0.22;0.22;;;27.40;60.30;;;28.02;43.07;95251.88;5033643;28;20192;-43
2023/06/22 02:34:29;;;;;;;0.30;0.30;;;27.40;60.30;;;28.01;43.83;95246.81;5034434;28;20198;-42
2023/06/22 02:36:56;;;;;;;0.30;0.30;;;27.40;60.30;;;27.99;43.26;95238.19;5034391;28;20199;-42
2023/06/22 02:39:24;;;;;;;0.30;0.30;;;27.40;60.30;;;27.99;43.41;95235.50;5049838;28;20208;-42
2023/06/22 02:41:54;;;;;;;0.30;0.30;;;27.40;60.30;;;27.97;43.88;95235.81;5034621;28;20198;-43
2023/06/22 02:44:22;;;;;;;0.30;0.30;;;27.30;60.30;;;27.96;43.45;95224.22;5033386;28;20196;-44
2023/06/22 02:46:50;;;;;;;0.30;0.30;;;27.30;60.30;;;27.95;43.49;95235.28;5034165;28;20689;-42
2023/06/22 02:49:17;;;;;;;0.20;0.20;;;27.30;60.30;;;27.93;43.63;95229.41;5033667;28;20205;-41
2023/06/22 02:51:47;;;;;;;0.30;0.30;;;27.30;61.30;;;27.91;43.20;95229.69;5035033;28;20190;-44
2023/06/22 02:54:17;;;;;;;0.30;0.30;;;27.30;60.30;;;27.89;43.25;95221.13;5050003;28;20245;-42
2023/06/22 02:56:47;;;;;;;0.20;0.20;;;27.30;60.30;;;27.87;43.74;95227.88;5049723;28;20199;-43
2023/06/22 02:59:14;;;;;;;0.20;0.20;;;27.20;60.20;;;27.86;43.53;95229.78;5049596;28;20234;-44
2023/06/22 03:01:44;;;;;;;0.30;0.30;;;27.20;60.30;;;27.85;43.68;95211.22;5033117;28;20209;-43
2023/06/22 03:04:21;;;;;;;0.20;0.20;;;27.20;60.30;;;27.84;43.71;95217.69;5033923;28;20622;-45
2023/06/22 03:06:50;;;;;;;0.30;0.30;;;27.20;60.30;;;27.82;43.47;95206.38;5032990;28;20235;-43
2023/06/22 03:09:18;;;;;;;0.30;0.30;;;27.20;60.40;;;27.82;43.98;95209.09;5032880;28;20194;-42
2023/06/22 03:11:45;;;;;;;0.30;0.30;;;27.20;60.30;;;27.79;43.79;95202.38;5049491;28;20199;-44
2023/06/22 03:14:13;;;;;;;0.30;0.30;;;27.20;60.30;;;27.79;43.58;95197.00;5032912;28;20205;-45
2023/06/22 03:16:40;;;;;;;0.20;0.20;;;27.10;60.30;;;27.77;43.91;95202.69;5034082;28;20291;-44
2023/06/22 03:19:08;;;;;;;0.30;0.30;;;27.10;60.40;;;27.77;43.36;95204.56;5049428;28;20204;-46
2023/06/22 03:21:38;;;;;;;0.20;0.20;;;27.20;60.50;;;27.74;43.82;95208.66;5049359;28;20267;-44
2023/06/22 03:24:06;;;;;;;0.30;0.30;;;27.10;60.50;;;27.73;43.66;95212.44;5033570;28;20294;-47
2023/06/22 03:26:35;;;;;;;0.30;0.30;;;27.10;60.40;;;27.74;43.70;95213.25;5049444;28;20248;-44
2023/06/22 03:29:03;;;;;;;0.30;0.30;;;27.10;61.40;;;27.73;43.53;95211.66;5032496;28;20680;-45
2023/06/22 03:31:30;;;;;;;0.25;0.25;;;27.10;60.50;;;27.71;43.73;95205.75;5033835;28;20274;-46
2023/06/22 03:33:59;;;;;;;0.20;0.20;;;27.10;60.50;;;27.70;43.94;95206.88;5033734;28;20286;-42
2023/06/22 03:36:26;;;;;;;0.20;0.20;;;27.10;60.50;;;27.68;43.93;95204.44;5033510;28;20212;-48
2023/06/22 03:38:53;;;;;;;0.30;0.30;;;27.10;60.50;;;27.68;43.83;95214.44;5049151;28;20294;-49
2023/06/22 03:41:21;;;;;;;0.30;0.30;;;27.00;60.50;;;27.66;43.86;95211.22;5049204;28;20201;-44
2023/06/22 03:43:49;;;;;;;0.30;0.30;;;27.00;60.50;;;27.63;44.25;95202.63;5032453;28;20219;-48
2023/06/22 03:46:16;;;;;;;0.20;0.20;;;27.00;60.60;;;27.62;43.87;95206.44;5033532;28;20214;-44
2023/06/22 03:48:43;;;;;;;0.30;0.30;;;27.00;60.60;;;27.62;43.72;95213.72;5032248;28;20200;-48
2023/06/22 03:51:10;;;;;;;0.28;0.28;;;27.00;60.60;;;27.61;43.59;95215.63;5032303;28;20213;-45
2023/06/22 03:53:38;;;;;;;0.28;0.28;;;27.00;60.60;;;27.60;44.07;95230.19;5033257;28;20242;-45
2023/06/22 03:56:05;;;;;;;0.28;0.28;;;27.00;60.60;;;27.59;44.05;95225.88;5033177;28;20195;-49
2023/06/22 03:58:33;;;;;;;0.30;0.30;;;27.00;60.70;;;27.57;44.19;95230.75;5033089;28;20252;-49
2023/06/22 04:01:00;;;;;;;0.30;0.30;;;27.00;60.70;;;27.57;43.90;95229.97;5033138;28;20201;-40
2023/06/22 04:03:28;;;;;;;0.22;0.22;;;27.00;60.70;;;27.57;44.24;95225.34;5048718;28;20297;-42
2023/06/22 04:05:55;;;;;;;0.22;0.22;;;26.90;60.70;;;27.54;43.72;95230.53;5033043;28;20204;-41
2023/06/22 04:08:22;;;;;;;0.20;0.20;;;26.90;60.70;;;27.54;43.93;95235.91;5032989;28;20234;-39
2023/06/22 04:10:49;;;;;;;0.30;0.30;;;26.90;60.70;;;27.54;44.26;95230.53;5033221;28;20192;-39
2023/06/22 04:13:16;;;;;;;0.20;0.20;;;26.90;60.80;;;27.54;44.01;95235.91;5032943;28;20219;-39
2023/06/22 04:15:43;;;;;;;0.30;0.30;;;27.00;60.90;;;27.53;44.15;95232.44;5032882;28;20206;-41
2023/06/22 04:18:10;;;;;;;0.30;0.30;;;26.90;60.80;;;27.52;44.48;95224.66;5032856;28;20242;-41
2023/06/22 04:20:38;;;;;;;0.20;0.20;;;26.90;60.90;;;27.53;44.46;95224.34;5032624;28;20203;-40
2023/06/22 04:23:05;;;;;;;0.25;0.25;;;26.90;60.90;;;27.53;44.09;95227.03;5032563;28;20691;-38
2023/06/22 04:25:33;;;;;;;0.20;0.20;;;26.90;61.00;;;27.52;44.34;95228.13;5048558;28;20202;-38
2023/06/22 04:28:03;;;;;;;0.30;0.30;;;26.90;61.00;;;27.52;44.37;95219.25;5032650;28;20214;-40
2023/06/22 04:30:33;;;;;;;0.30;0.30;;;26.90;61.00;;;27.51;44.13;95226.53;5048041;28;20233;-40
2023/06/22 04:33:00;;;;;;;0.30;0.30;;;26.90;61.10;;;27.51;44.82;95225.75;5032840;28;20197;-40
2023/06/22 04:35:29;;;;;;;0.30;0.30;;;26.90;61.10;;;27.51;44.58;95223.03;5032556;28;20212;-38
2023/06/22 04:37:58;;;;;;;0.35;0.35;;;26.90;61.10;;;27.51;44.31;95223.84;5032539;28;20207;-40
2023/06/22 04:40:26;;;;;;;0.20;0.20;;;26.90;61.20;;;27.50;44.56;95219.53;5032546;28;20545;-39
2023/06/22 04:42:54;;;;;;;0.30;0.30;;;26.90;61.20;;;27.50;44.36;95219.53;5032496;28;20245;-38
2023/06/22 04:45:21;;;;;;;0.30;0.30;;;26.90;61.20;;;27.50;44.80;95213.34;5031917;28;20296;-40
2023/06/22 04:47:49;;;;;;;0.20;0.20;;;26.90;61.30;;;27.49;45.05;95209.88;5031500;28;20250;-41
2023/06/22 04:50:17;;;;;;;0.30;0.30;;;26.90;61.40;;;27.51;44.65;95218.44;5032237;28;20202;-40
2023/06/22 04:52:45;;;;;;;0.35;0.35;;;26.90;61.40;;;27.50;45.03;95208.75;5032637;28;20221;-41
2023/06/22 04:55:18;;;;;;;0.30;0.30;;;27.00;61.50;;;27.50;44.86;95208.75;5032313;28;20526;-38
2023/06/22 04:57:48;;;;;;;0.30;0.30;;;27.00;61.50;;;27.50;44.66;95206.06;5032471;28;20535;-40
2023/06/22 05:00:19;;;;;;;0.30;0.30;;;27.00;61.50;;;27.50;45.15;95197.97;5047356;28;20186;-43
2023/06/22 05:02:47;;;;;;;0.30;0.30;;;27.00;61.60;;;27.51;45.26;95198.81;5047935;28;20191;-44
2023/06/22 05:05:15;;;;;;;0.30;0.30;;;27.00;61.60;;;27.52;45.15;95211.97;5032119;28;20636;-41
2023/06/22 05:07:45;;;;;;;0.30;0.30;;;27.00;61.60;;;27.52;45.24;95214.66;5031244;28;20228;-47
2023/06/22 05:10:12;;;;;;;0.20;0.20;;;27.00;61.70;;;27.51;44.88;95210.38;5031869;28;20222;-44
2023/06/22 05:12:41;;;;;;;0.20;0.20;;;27.00;61.70;;;27.53;45.06;95207.41;5032078;28;20285;-45
2023/06/22 05:15:09;;;;;;;0.40;0.40;;;27.00;61.70;;;27.53;45.07;95216.28;5032592;28;20200;-40
2023/06/22 05:17:42;;;;;;;0.20;0.20;;;27.00;61.70;;;27.53;44.89;95210.88;5047602;28;20645;-41
2023/06/22 05:20:12;;;;;;;0.30;0.30;;;27.00;61.80;;;27.54;45.38;95217.88;5032006;28;20188;-42
2023/06/22 05:22:40;;;;;;;0.20;0.20;;;27.00;61.80;;;27.54;45.06;95214.38;5031801;28;20262;-41
2023/06/22 05:25:10;;;;;;;0.30;0.30;;;27.10;61.80;;;27.54;45.48;95223.25;5031983;28;20204;-40
2023/06/22 05:27:40;;;;;;;0.30;0.30;;;27.10;61.80;;;27.56;45.26;95220.28;5032058;28;20718;-42
2023/06/22 05:30:09;;;;;;;0.30;0.30;;;27.10;61.80;;;27.57;45.54;95219.19;5047257;28;20177;-41
2023/06/22 05:32:36;;;;;;;0.40;0.40;;;27.10;61.80;;;27.58;45.44;95215.41;5031288;28;20255;-47
2023/06/22 05:35:04;;;;;;;0.30;0.30;;;27.10;61.80;;;27.58;45.71;95210.78;5032284;28;20233;-43
2023/06/22 05:37:32;;;;;;;0.30;0.30;;;27.10;61.80;;;27.59;45.56;95217.78;5031768;28;20288;-45
2023/06/22 05:39:59;;;;;;;0.20;0.20;;;27.10;61.80;;;27.60;45.60;95207.81;5032211;28;20206;-39
2023/06/22 05:42:26;;;;;;;0.30;0.30;;;27.10;61.80;;;27.61;45.72;95212.09;5031698;28;20188;-41
2023/06/22 05:44:53;;;;;;;0.28;0.28;;;27.10;61.90;;;27.63;45.78;95218.00;5031513;28;20197;-45
2023/06/22 05:47:21;;;;;;;0.20;0.20;;;27.10;61.80;;;27.63;45.62;95210.72;5031577;28;20664;-42
2023/06/22 05:49:48;;;;;;;0.20;0.20;;;27.20;61.90;;;27.64;46.04;95216.91;5031632;28;20196;-42
2023/06/22 05:52:15;;;;;;;0.20;0.20;;;27.20;61.90;;;27.66;45.60;95220.13;5031886;28;20202;-47
2023/06/22 05:54:42;;;;;;;0.20;0.20;;;27.20;61.90;;;27.67;45.83;95226.31;5047105;28;20645;-46
2023/06/22 05:57:10;;;;;;;0.30;0.30;;;27.20;62.00;;;27.65;45.80;95218.53;5032036;28;20706;-40
2023/06/22 05:59:37;;;;;;;0.38;0.38;;;27.20;62.10;;;27.69;45.57;95224.91;5034983;28;20221;-40
2023/06/22 06:02:04;;;;;;;0.20;0.20;;;27.20;62.00;;;27.70;45.38;95215.75;5034949;28;20203;-41
2023/06/22 06:04:32;;;;;;;0.20;0.20;;;27.20;62.10;;;27.71;45.75;95220.03;5034761;28;20538;-39
2023/06/22 06:06:59;;;;;;;0.32;0.32;;;27.20;62.10;;;27.72;45.91;95220.84;5034969;28;20615;-40
2023/06/22 06:09:26;;;;;;;0.22;0.22;;;27.20;62.10;;;27.73;45.81;95222.44;5035011;28;20272;-40
2023/06/22 06:11:53;;;;;;;0.30;0.30;;;27.30;62.10;;;27.74;45.91;95224.03;5050710;28;20222;-40
2023/06/22 06:14:20;;;;;;;0.20;0.20;;;27.30;62.20;;;27.75;46.26;95225.66;5034769;28;20271;-40
2023/06/22 06:16:49;;;;;;;0.38;0.38;;;27.30;62.20;;;27.76;46.15;95228.03;5034587;28;20201;-40
2023/06/22 06:19:16;;;;;;;0.30;0.30;;;27.30;62.30;;;27.78;46.17;95233.13;5034669;28;20224;-40
2023/06/22 06:21:43;;;;;;;0.30;0.30;;;27.30;62.20;;;27.79;46.30;95232.84;5034958;28;20193;-40
2023/06/22 06:24:10;;;;;;;0.30;0.30;;;27.30;62.30;;;27.79;46.04;95227.47;5034470;28;20296;-40
2023/06/22 06:26:37;;;;;;;0.20;0.20;;;27.30;62.30;;;27.80;46.10;95229.03;5034434;28;20201;-42
2023/06/22 06:29:07;;;;;;;0.25;0.25;;;27.40;62.30;;;27.83;46.26;95227.69;5034940;28;20275;-42
2023/06/22 06:31:34;;;;;;;0.30;0.30;;;27.40;62.30;;;27.82;46.14;95225.25;5034586;28;20193;-43
2023/06/22 06:34:02;;;;;;;0.30;0.30;;;27.40;62.30;;;27.83;46.38;95233.06;5050204;28;20208;-39
2023/06/22 06:36:29;;;;;;;0.30;0.30;;;27.40;62.30;;;27.85;46.60;95230.88;5049928;28;20206;-43
2023/06/22 06:38:56;;;;;;;0.30;0.30;;;27.40;63.20;;;27.87;46.16;95235.94;5033534;28;20597;-39
2023/06/22 06:41:24;;;;;;;0.20;0.20;;;27.40;62.40;;;27.88;46.03;95234.88;5034515;28;20196;-49
2023/06/22 06:43:51;;;;;;;0.20;0.20;;;27.40;62.50;;;27.89;46.16;95228.38;5034459;28;20227;-47
2023/06/22 06:46:19;;;;;;;0.22;0.22;;;27.40;62.50;;;27.91;46.46;95228.91;5049711;28;20230;-43
2023/06/22 06:48:47;;;;;;;0.30;0.30;;;27.40;62.50;;;27.91;46.45;95221.59;5034251;28;20219;-39
2023/06/22 06:51:14;;;;;;;0.30;0.30;;;27.50;62.60;;;27.94;46.75;95225.59;5034281;28;20299;-40
2023/06/22 06:53:41;;;;;;;0.30;0.30;;;27.50;62.60;;;27.95;46.16;95227.19;5049930;28;20209;-41
2023/06/22 06:56:10;;;;;;;0.20;0.20;;;27.50;62.60;;;27.95;46.52;95214.53;5033802;28;20293;-43
2023/06/22 06:58:41;;;;;;;0.30;0.30;;;27.50;62.60;;;27.97;46.62;95211.53;5034070;28;20519;-43
2023/06/22 07:01:09;;;;;;;0.20;0.20;;;27.50;62.70;;;27.99;46.46;95216.63;5033521;28;20206;-44
2023/06/22 07:03:36;;;;;;;0.30;0.30;;;27.50;62.70;;;28.00;46.16;95216.31;5034022;28;20706;-45
2023/06/22 07:06:03;;;;;;;0.30;0.30;;;27.50;62.70;;;28.01;46.52;95209.84;5033817;28;20218;-42
2023/06/22 07:08:31;;;;;;;0.30;0.30;;;27.60;62.80;;;28.03;46.43;95214.97;5033861;28;20651;-43
2023/06/22 07:10:58;;;;;;;0.30;0.30;;;27.60;62.80;;;28.04;46.92;95214.66;5033966;28;20193;-42
2023/06/22 07:13:26;;;;;;;0.30;0.30;;;27.60;62.80;;;28.06;46.61;95206.28;5033843;28;20643;-41
2023/06/22 07:15:53;;;;;;;0.30;0.30;;;27.60;62.80;;;28.07;46.39;95216.00;5033845;28;20701;-43
2023/06/22 07:18:20;;;;;;;0.30;0.30;;;27.60;62.90;;;28.09;46.70;95213.81;5049706;28;20230;-43
2023/06/22 07:20:48;;;;;;;0.30;0.30;;;27.60;62.90;;;28.10;46.75;95213.50;5049649;28;20224;-44
2023/06/22 07:23:16;;;;;;;0.30;0.30;;;27.60;62.90;;;28.12;46.63;95215.88;5033651;28;20309;-42
2023/06/22 07:25:43;;;;;;;0.30;0.30;;;27.70;62.90;;;28.14;46.64;95215.59;5032750;28;20210;-42
2023/06/22 07:28:11;;;;;;;0.30;0.30;;;27.70;62.90;;;28.12;46.46;95199.72;5033857;28;20232;-42
2023/06/22 07:30:38;;;;;;;0.20;0.20;;;27.70;63.00;;;28.16;46.98;95194.53;5033648;28;20293;-44
2023/06/22 07:33:08;;;;;;;0.30;0.30;;;27.70;63.00;;;28.18;47.11;95195.81;5049530;28;20381;-46
2023/06/22 07:35:36;;;;;;;0.30;0.30;;;27.70;63.00;;;28.20;46.91;95204.44;5033817;28;20207;-45
2023/06/22 07:38:03;;;;;;;0.30;0.30;;;27.70;63.00;;;28.22;46.81;95198.72;5033732;28;20214;-45
2023/06/22 07:40:33;;;;;;;0.30;0.30;;;27.70;63.10;;;28.23;47.23;95195.72;5033507;28;20218;-45
2023/06/22 07:43:02;;;;;;;0.20;0.20;;;27.70;63.10;;;28.26;47.10;95202.44;5049129;28;20200;-43
2023/06/22 07:45:29;;;;;;;0.20;0.20;;;27.80;63.10;;;28.27;46.87;95198.63;5033250;28;20279;-40
2023/06/22 07:47:57;;;;;;;0.20;0.20;;;27.80;63.10;;;28.31;47.00;95212.31;5033303;28;20685;-40
2023/06/22 07:50:24;;;;;;;0.30;0.30;;;27.80;63.10;;;28.32;47.07;95195.84;5033349;28;20248;-42
2023/06/22 07:52:52;;;;;;;0.20;0.20;;;27.80;63.20;;;28.33;47.01;95196.66;5033389;28;20637;-43
2023/06/22 07:55:19;;;;;;;0.25;0.25;;;27.90;63.20;;;28.36;47.34;95190.66;5048760;28;20202;-43
2023/06/22 07:57:49;;;;;;;0.30;0.30;;;27.90;63.20;;;28.38;47.04;95202.75;5033318;28;20204;-42
2023/06/22 08:00:17;;;;;;;0.20;0.20;;;27.90;63.20;;;28.42;47.37;95198.34;5033369;28;20274;-41
2023/06/22 08:02:47;;;;;;;0.20;0.20;;;27.90;63.20;;;28.44;46.90;95200.75;5033194;28;20199;-42
2023/06/22 08:05:15;;;;;;;0.20;0.20;;;28.00;63.30;;;28.46;46.72;95203.16;5032094;28;20247;-43
2023/06/22 08:07:49;;;;;;;0.30;0.30;;;28.00;63.20;;;28.48;46.83;95204.47;5047794;28;20256;-43
2023/06/22 08:10:17;;;;;;;0.30;0.30;;;28.00;63.20;;;28.49;47.21;95189.88;5033064;28;20536;-40
2023/06/22 08:12:44;;;;;;;0.30;0.30;;;28.00;63.20;;;28.52;47.41;95197.34;5033148;28;20191;-44
2023/06/22 08:15:11;;;;;;;0.20;0.20;;;28.00;63.20;;;28.54;47.28;95200.56;5049107;28;20191;-43
2023/06/22 08:17:40;;;;;;;0.30;0.30;;;28.10;63.20;;;28.56;46.82;95198.38;5032800;28;20651;-43
2023/06/22 08:20:10;;;;;;;0.22;0.22;;;28.10;63.20;;;28.58;47.21;95201.56;5031780;28;20198;-40
2023/06/22 08:22:37;;;;;;;0.20;0.20;;;28.10;63.20;;;28.61;47.01;95192.06;5032661;28;20290;-41
2023/06/22 08:25:06;;;;;;;0.30;0.30;;;28.10;63.20;;;28.57;47.11;95185.66;5033219;28;20190;-43
2023/06/22 08:27:33;;;;;;;0.30;0.30;;;28.20;63.30;;;28.66;47.48;95196.56;5032607;28;20215;-43
2023/06/22 08:30:01;;;;;;;0.30;0.30;;;28.20;63.40;;;28.67;46.94;95190.06;5032793;28;20224;-40
2023/06/22 08:32:29;;;;;;;0.30;0.30;;;28.20;63.40;;;28.69;47.45;95196.78;5032986;28;20194;-43
2023/06/22 08:34:57;;;;;;;0.20;0.20;;;28.20;63.30;;;28.72;47.60;95193.50;5032697;28;20207;-40
2023/06/22 08:37:30;;;;;;;0.20;0.20;;;28.20;63.40;;;28.73;47.33;95200.50;5032658;28;20191;-42
2023/06/22 08:40:01;;;;;;;0.20;0.20;;;28.20;63.40;;;28.76;47.46;95201.81;5048418;28;20275;-43
2023/06/22 08:42:28;;;;;;;0.30;0.30;;;28.30;63.40;;;28.78;47.15;95204.19;5048326;28;20194;-41
2023/06/22 08:44:55;;;;;;;0.30;0.30;;;28.30;63.30;;;28.80;47.24;95208.19;5032592;28;20559;-42
2023/06/22 08:47:23;;;;;;;0.20;0.20;;;28.30;63.30;;;28.81;47.03;95199.00;5031493;28;20308;-41
2023/06/22 08:49:50;;;;;;;0.30;0.30;;;28.30;63.20;;;28.82;47.26;95206.00;5032708;28;20195;-40
2023/06/22 08:52:19;;;;;;;0.40;0.40;;;28.30;63.20;;;28.86;47.36;95208.88;5048423;28;20221;-38
2023/06/22 08:54:47;;;;;;;0.30;0.30;;;28.40;63.40;;;28.87;46.79;95203.19;5032521;28;20195;-40
2023/06/22 08:57:15;;;;;;;0.22;0.22;;;28.40;63.30;;;28.90;47.37;95204.47;5031648;28;20186;-48
2023/06/22 08:59:43;;;;;;;0.30;0.30;;;28.40;63.20;;;28.90;47.30;95197.16;5032852;28;20601;-40
2023/06/22 09:02:10;;;;;;;0.30;0.30;;;28.40;63.20;;;28.93;46.78;95201.19;5048063;28;20196;-41
2023/06/22 09:04:37;;;;;;;0.25;0.25;;;28.40;63.20;;;28.96;47.23;95194.38;5032612;28;20196;-43
2023/06/22 09:07:05;;;;;;;0.20;0.20;;;28.40;63.20;;;28.97;46.92;95194.06;5048029;28;20298;-50
2023/06/22 09:09:33;;;;;;;0.25;0.25;;;28.40;63.20;;;29.00;47.30;95184.56;5031985;28;20214;-45
2023/06/22 09:12:00;;;;;;;0.30;0.30;;;28.50;63.20;;;29.02;47.37;95187.75;5031339;28;20187;-46
2023/06/22 09:14:27;;;;;;;0.30;0.30;;;28.50;63.30;;;29.03;47.22;95190.16;5032420;28;20240;-43
2023/06/22 09:16:54;;;;;;;0.30;0.30;;;28.50;63.20;;;29.05;46.93;95193.34;5032061;28;20295;-45
2023/06/22 09:19:22;;;;;;;0.28;0.28;;;28.60;63.30;;;29.07;47.00;95191.13;5032181;28;20203;-45
2023/06/22 09:21:49;;;;;;;0.40;0.40;;;28.60;63.30;;;29.10;47.24;95189.75;5032073;28;20252;-39
2023/06/22 09:24:17;;;;;;;0.20;0.20;;;28.60;63.30;;;29.12;46.71;95192.94;5047433;28;20247;-41
2023/06/22 09:26:44;;;;;;;0.30;0.30;;;28.60;63.30;;;29.13;47.16;95185.66;5032069;28;20231;-40
2023/06/22 09:29:11;;;;;;;0.20;0.20;;;28.60;63.20;;;29.15;47.27;95181.53;5032515;28;20224;-42
2023/06/22 09:31:38;;;;;;;0.30;0.30;;;28.60;63.20;;;29.18;47.36;95182.81;5032948;28;20276;-44
2023/06/22 09:34:05;;;;;;;0.20;0.20;;;28.70;63.30;;;29.20;47.39;95186.03;5035568;28;20261;-39
2023/06/22 09:36:33;;;;;;;0.20;0.20;;;28.70;63.30;;;29.21;46.89;95171.41;5035814;28;20198;-41
2023/06/22 09:39:05;;;;;;;0.30;0.30;;;28.70;63.20;;;29.23;47.22;95170.00;5050908;28;20191;-43
2023/06/22 09:41:33;;;;;;;0.20;0.20;;;28.70;63.30;;;29.27;47.29;95177.50;5035698;28;20237;-43
2023/06/22 09:44:00;;;;;;;0.30;0.30;;;28.80;63.30;;;29.28;47.05;95165.59;5035596;28;20544;-39
2023/06/22 09:46:28;;;;;;;0.20;0.20;;;28.80;63.20;;;29.30;46.77;95169.59;5035143;28;20211;-45
2023/06/22 09:48:56;;;;;;;0.20;0.20;;;28.80;63.40;;;29.32;46.92;95164.72;5035456;28;20208;-43
2023/06/22 09:51:23;;;;;;;0.20;0.20;;;28.80;63.30;;;29.35;46.89;95171.41;5034332;28;20268;-43
2023/06/22 09:53:52;;;;;;;0.30;0.30;;;28.80;63.30;;;29.38;46.87;95173.47;5035457;28;20260;-40
2023/06/22 09:56:19;;;;;;;0.22;0.22;;;28.80;63.20;;;29.35;46.98;95163.28;5050479;28;20198;-41
2023/06/22 09:58:47;;;;;;;0.20;0.20;;;28.80;63.30;;;29.41;47.25;95166.66;5035318;28;20595;-41
2023/06/22 10:01:14;;;;;;;0.20;0.20;;;28.90;63.30;;;29.42;46.95;95158.25;5035158;28;20253;-42
2023/06/22 10:03:42;;;;;;;0.30;0.30;;;28.90;63.30;;;29.44;47.39;95169.53;5034997;28;20540;-41
2023/06/22 10:06:09;;;;;;;0.20;0.20;;;28.90;63.20;;;29.46;46.76;95167.34;5034394;28;20641;-41
2023/06/22 10:08:36;;;;;;;0.20;0.20;;;28.90;63.10;;;29.48;46.65;95164.31;5050328;28;20234;-44
2023/06/22 10:11:04;;;;;;;0.30;0.30;;;28.90;63.10;;;29.49;46.91;95155.94;5050835;28;20291;-48
2023/06/22 10:13:31;;;;;;;0.30;0.30;;;29.00;63.20;;;29.51;47.14;95161.81;5034901;28;20638;-44
2023/06/22 10:15:58;;;;;;;0.25;0.25;;;29.00;63.10;;;29.53;46.70;95154.22;5050684;28;20227;-42
2023/06/22 10:18:25;;;;;;;0.20;0.20;;;29.00;63.10;;;29.56;46.68;95155.50;5034721;28;20198;-42
2023/06/22 10:20:53;;;;;;;0.25;0.25;;;29.00;63.00;;;29.58;46.47;95149.78;5035035;28;20237;-43
2023/06/22 10:23:20;;;;;;;0.20;0.20;;;29.00;63.10;;;29.61;47.20;95147.25;5034719;28;20239;-42
2023/06/22 10:25:48;;;;;;;0.30;0.30;;;29.00;63.10;;;29.63;46.97;95155.06;5034730;28;20217;-40